EZY818 EGCC-EGAA
Flight info
| Callsign | EZY818 |
|---|---|
| Flight time | 0h 33m |
| Altitude | 24000 |
| Route | ASMIM L975 WAL M146 IPSET P6 BELZU |
| Aircraft | A319/M-SDE3FGHIRWY/LB1 |
Departure
| Time | 2026-05-05 16:28 |
|---|---|
| Airport | Manchester Airport (EGCC) |
Arrival
| Time | 2026-05-05 17:01 |
|---|---|
| Airport | Belfast International Airport (EGAA) |
| Time | Latitude | Longitude | Altitude | Speed | Heading |
|---|---|---|---|---|---|
| 2026-05-05 16:04 | 53.35949 | -2.27129 | 256 ft | 0 kts | 89° |
| 2026-05-05 16:18 | 53.35950 | -2.27183 | 255 ft | 2 kts | 97° |
| 2026-05-05 16:19 | 53.35953 | -2.27210 | 255 ft | 2 kts | 110° |
| 2026-05-05 16:19 | 53.35961 | -2.27235 | 255 ft | 2 kts | 148° |
| 2026-05-05 16:19 | 53.35979 | -2.27245 | 255 ft | 0 kts | 181° |
| 2026-05-05 16:22 | 53.35909 | -2.27231 | 255 ft | 9 kts | 172° |
| 2026-05-05 16:23 | 53.35791 | -2.27316 | 255 ft | 12 kts | 229° |
| 2026-05-05 16:23 | 53.35732 | -2.27431 | 255 ft | 14 kts | 230° |
| 2026-05-05 16:23 | 53.35634 | -2.27629 | 255 ft | 12 kts | 227° |
| 2026-05-05 16:24 | 53.35557 | -2.27753 | 251 ft | 19 kts | 224° |
| 2026-05-05 16:24 | 53.35444 | -2.27938 | 245 ft | 25 kts | 224° |
| 2026-05-05 16:24 | 53.35175 | -2.28415 | 231 ft | 28 kts | 231° |
| 2026-05-05 16:25 | 53.35054 | -2.28663 | 224 ft | 26 kts | 230° |
| 2026-05-05 16:25 | 53.34793 | -2.29136 | 217 ft | 25 kts | 229° |
| 2026-05-05 16:25 | 53.34680 | -2.29325 | 203 ft | 18 kts | 202° |
| 2026-05-05 16:26 | 53.34572 | -2.29173 | 205 ft | 3 kts | 51° |
| 2026-05-05 16:26 | 53.34580 | -2.29156 | 202 ft | 1 kts | 51° |
| 2026-05-05 16:27 | 53.34585 | -2.29144 | 212 ft | 2 kts | 56° |
| 2026-05-05 16:27 | 53.34587 | -2.29139 | 210 ft | 0 kts | 56° |
| 2026-05-05 16:27 | 53.34589 | -2.29135 | 209 ft | 1 kts | 56° |
| 2026-05-05 16:27 | 53.34591 | -2.29128 | 211 ft | 2 kts | 55° |
| 2026-05-05 16:28 | 53.34722 | -2.28850 | 211 ft | 71 kts | 51° |
| 2026-05-05 16:28 | 53.35195 | -2.27884 | 239 ft | 140 kts | 51° |
| 2026-05-05 16:28 | 53.35867 | -2.26492 | 648 ft | 158 kts | 49° |
| 2026-05-05 16:28 | 53.36555 | -2.25063 | 1420 ft | 158 kts | 49° |
| 2026-05-05 16:29 | 53.37275 | -2.23577 | 1913 ft | 175 kts | 49° |
| 2026-05-05 16:29 | 53.38108 | -2.21893 | 2380 ft | 200 kts | 45° |
| 2026-05-05 16:29 | 53.39371 | -2.20723 | 2863 ft | 223 kts | 7° |
| 2026-05-05 16:29 | 53.40954 | -2.21219 | 3426 ft | 248 kts | 328° |
| 2026-05-05 16:30 | 53.42089 | -2.23445 | 4314 ft | 260 kts | 295° |
| 2026-05-05 16:30 | 53.42685 | -2.26341 | 5383 ft | 265 kts | 289° |
| 2026-05-05 16:30 | 53.43341 | -2.29248 | 6455 ft | 268 kts | 293° |
| 2026-05-05 16:30 | 53.44094 | -2.32128 | 7457 ft | 271 kts | 295° |
| 2026-05-05 16:31 | 53.44910 | -2.34951 | 8488 ft | 273 kts | 296° |
| 2026-05-05 16:31 | 53.45777 | -2.37810 | 9507 ft | 277 kts | 297° |
| 2026-05-05 16:31 | 53.46624 | -2.40734 | 10427 ft | 281 kts | 289° |
| 2026-05-05 16:31 | 53.46910 | -2.43983 | 11275 ft | 286 kts | 266° |
| 2026-05-05 16:32 | 53.46609 | -2.47382 | 11793 ft | 306 kts | 260° |
| 2026-05-05 16:32 | 53.46216 | -2.50995 | 12301 ft | 322 kts | 259° |
| 2026-05-05 16:32 | 53.45794 | -2.54724 | 13097 ft | 328 kts | 259° |
| 2026-05-05 16:32 | 53.45363 | -2.58501 | 13935 ft | 332 kts | 259° |
| 2026-05-05 16:33 | 53.44930 | -2.62333 | 14682 ft | 336 kts | 259° |
| 2026-05-05 16:33 | 53.44497 | -2.66202 | 15440 ft | 339 kts | 260° |
| 2026-05-05 16:33 | 53.44064 | -2.70111 | 16178 ft | 343 kts | 260° |
| 2026-05-05 16:33 | 53.43634 | -2.74021 | 16915 ft | 347 kts | 260° |
| 2026-05-05 16:34 | 53.43188 | -2.78071 | 17662 ft | 351 kts | 259° |
| 2026-05-05 16:34 | 53.42741 | -2.82114 | 18373 ft | 355 kts | 259° |
| 2026-05-05 16:34 | 53.42292 | -2.86144 | 18981 ft | 359 kts | 259° |
| 2026-05-05 16:34 | 53.41824 | -2.90299 | 19610 ft | 363 kts | 259° |
| 2026-05-05 16:35 | 53.41349 | -2.94493 | 20233 ft | 367 kts | 259° |
| 2026-05-05 16:35 | 53.40867 | -2.98724 | 20854 ft | 371 kts | 259° |
| 2026-05-05 16:35 | 53.40388 | -3.02949 | 21453 ft | 376 kts | 259° |
| 2026-05-05 16:35 | 53.40162 | -3.07341 | 22052 ft | 380 kts | 272° |
| 2026-05-05 16:36 | 53.40530 | -3.11766 | 22652 ft | 384 kts | 284° |
| 2026-05-05 16:36 | 53.41485 | -3.15969 | 23261 ft | 389 kts | 297° |
| 2026-05-05 16:36 | 53.42983 | -3.19763 | 23802 ft | 393 kts | 310° |
| 2026-05-05 16:36 | 53.44842 | -3.23059 | 24001 ft | 395 kts | 314° |
| 2026-05-05 16:37 | 53.46745 | -3.26303 | 24041 ft | 383 kts | 314° |
| 2026-05-05 16:37 | 53.48580 | -3.29433 | 24059 ft | 372 kts | 314° |
| 2026-05-05 16:37 | 53.50387 | -3.32514 | 24058 ft | 369 kts | 314° |
| 2026-05-05 16:37 | 53.52181 | -3.35585 | 24046 ft | 368 kts | 314° |
| 2026-05-05 16:38 | 53.53973 | -3.38663 | 24051 ft | 368 kts | 314° |
| 2026-05-05 16:38 | 53.55760 | -3.41740 | 24053 ft | 368 kts | 314° |
| 2026-05-05 16:38 | 53.57540 | -3.44839 | 24048 ft | 372 kts | 311° |
| 2026-05-05 16:38 | 53.59150 | -3.48391 | 24053 ft | 392 kts | 305° |
| 2026-05-05 16:39 | 53.60766 | -3.52229 | 24055 ft | 411 kts | 305° |
| 2026-05-05 16:39 | 53.62445 | -3.56234 | 24052 ft | 426 kts | 305° |
| 2026-05-05 16:39 | 53.64183 | -3.60381 | 24049 ft | 439 kts | 305° |
| 2026-05-05 16:39 | 53.65959 | -3.64620 | 24040 ft | 445 kts | 305° |
| 2026-05-05 16:40 | 53.67747 | -3.68889 | 24042 ft | 446 kts | 305° |
| 2026-05-05 16:40 | 53.69539 | -3.73173 | 24048 ft | 446 kts | 305° |
| 2026-05-05 16:40 | 53.71333 | -3.77467 | 24045 ft | 446 kts | 305° |
| 2026-05-05 16:40 | 53.73101 | -3.81709 | 24034 ft | 446 kts | 305° |
| 2026-05-05 16:41 | 53.74884 | -3.85991 | 24042 ft | 446 kts | 305° |
| 2026-05-05 16:41 | 53.76668 | -3.90289 | 24044 ft | 446 kts | 305° |
| 2026-05-05 16:41 | 53.78454 | -3.94605 | 24036 ft | 445 kts | 305° |
| 2026-05-05 16:41 | 53.80227 | -3.98901 | 24039 ft | 445 kts | 305° |
| 2026-05-05 16:42 | 53.81999 | -4.03198 | 24037 ft | 445 kts | 305° |
| 2026-05-05 16:42 | 53.83791 | -4.07547 | 24036 ft | 456 kts | 305° |
| 2026-05-05 16:42 | 53.85614 | -4.11977 | 24040 ft | 461 kts | 305° |
| 2026-05-05 16:42 | 53.86830 | -4.14935 | 24039 ft | 462 kts | 305° |
| 2026-05-05 16:43 | 53.89289 | -4.20921 | 24043 ft | 463 kts | 305° |
| 2026-05-05 16:43 | 53.90502 | -4.23882 | 24044 ft | 463 kts | 305° |
| 2026-05-05 16:43 | 53.92334 | -4.28369 | 24049 ft | 463 kts | 305° |
| 2026-05-05 16:43 | 53.94757 | -4.34318 | 24046 ft | 462 kts | 305° |
| 2026-05-05 16:44 | 53.95991 | -4.37350 | 24053 ft | 462 kts | 305° |
| 2026-05-05 16:44 | 53.97815 | -4.41844 | 24051 ft | 462 kts | 305° |
| 2026-05-05 16:44 | 53.99640 | -4.46351 | 24057 ft | 462 kts | 305° |
| 2026-05-05 16:44 | 54.01469 | -4.50848 | 24057 ft | 462 kts | 306° |
| 2026-05-05 16:45 | 54.03528 | -4.54937 | 24057 ft | 462 kts | 313° |
| 2026-05-05 16:45 | 54.05703 | -4.58967 | 24054 ft | 462 kts | 313° |
| 2026-05-05 16:45 | 54.07873 | -4.62988 | 24056 ft | 462 kts | 313° |
| 2026-05-05 16:45 | 54.10044 | -4.67018 | 24055 ft | 462 kts | 313° |
| 2026-05-05 16:46 | 54.12179 | -4.70987 | 24043 ft | 442 kts | 313° |
| 2026-05-05 16:46 | 54.14206 | -4.74767 | 23927 ft | 422 kts | 313° |
| 2026-05-05 16:46 | 54.16140 | -4.78383 | 23807 ft | 403 kts | 313° |
| 2026-05-05 16:46 | 54.17989 | -4.81851 | 23691 ft | 388 kts | 312° |
| 2026-05-05 16:47 | 54.19784 | -4.85218 | 23300 ft | 381 kts | 312° |
| 2026-05-05 16:47 | 54.21564 | -4.88561 | 22718 ft | 380 kts | 312° |
| 2026-05-05 16:47 | 54.23341 | -4.91906 | 22207 ft | 377 kts | 312° |
| 2026-05-05 16:47 | 54.25081 | -4.95189 | 21729 ft | 374 kts | 312° |
| 2026-05-05 16:48 | 54.26824 | -4.98477 | 21254 ft | 370 kts | 312° |
| 2026-05-05 16:48 | 54.28551 | -5.01735 | 20773 ft | 367 kts | 312° |
| 2026-05-05 16:48 | 54.30265 | -5.04974 | 20290 ft | 364 kts | 312° |
| 2026-05-05 16:48 | 54.31941 | -5.08147 | 19824 ft | 361 kts | 312° |
| 2026-05-05 16:49 | 54.33630 | -5.11349 | 19350 ft | 358 kts | 312° |
| 2026-05-05 16:49 | 54.35299 | -5.14514 | 18874 ft | 356 kts | 312° |
| 2026-05-05 16:49 | 54.36935 | -5.17618 | 18416 ft | 353 kts | 312° |
| 2026-05-05 16:49 | 54.38586 | -5.20758 | 17910 ft | 350 kts | 312° |
| 2026-05-05 16:50 | 54.40191 | -5.23818 | 17398 ft | 348 kts | 311° |
| 2026-05-05 16:50 | 54.41808 | -5.26909 | 16896 ft | 345 kts | 311° |
| 2026-05-05 16:50 | 54.43407 | -5.29965 | 16400 ft | 342 kts | 311° |
| 2026-05-05 16:50 | 54.44985 | -5.32979 | 15728 ft | 338 kts | 311° |
| 2026-05-05 16:51 | 54.46568 | -5.35944 | 15067 ft | 335 kts | 313° |
| 2026-05-05 16:51 | 54.48178 | -5.38847 | 14431 ft | 332 kts | 313° |
| 2026-05-05 16:51 | 54.49772 | -5.41665 | 13793 ft | 329 kts | 314° |
| 2026-05-05 16:51 | 54.51290 | -5.44621 | 13099 ft | 325 kts | 304° |
| 2026-05-05 16:52 | 54.52329 | -5.48004 | 12440 ft | 321 kts | 290° |
| 2026-05-05 16:52 | 54.53022 | -5.51655 | 11760 ft | 318 kts | 287° |
| 2026-05-05 16:52 | 54.53693 | -5.55262 | 11106 ft | 315 kts | 288° |
| 2026-05-05 16:52 | 54.54352 | -5.58786 | 10479 ft | 311 kts | 287° |
| 2026-05-05 16:53 | 54.55013 | -5.62327 | 9909 ft | 309 kts | 287° |
| 2026-05-05 16:53 | 54.55655 | -5.65769 | 9773 ft | 293 kts | 287° |
| 2026-05-05 16:53 | 54.56257 | -5.69003 | 9637 ft | 274 kts | 287° |
| 2026-05-05 16:53 | 54.56822 | -5.72052 | 9383 ft | 260 kts | 287° |
| 2026-05-05 16:54 | 54.57352 | -5.74929 | 9241 ft | 244 kts | 287° |
| 2026-05-05 16:54 | 54.57715 | -5.77726 | 8886 ft | 238 kts | 272° |
| 2026-05-05 16:54 | 54.57505 | -5.80534 | 8428 ft | 237 kts | 260° |
| 2026-05-05 16:54 | 54.57193 | -5.83314 | 7972 ft | 235 kts | 260° |
| 2026-05-05 16:55 | 54.56877 | -5.86071 | 7549 ft | 234 kts | 260° |
| 2026-05-05 16:55 | 54.56563 | -5.88807 | 7152 ft | 233 kts | 260° |
| 2026-05-05 16:55 | 54.56250 | -5.91536 | 6876 ft | 231 kts | 260° |
| 2026-05-05 16:55 | 54.55943 | -5.94199 | 6731 ft | 221 kts | 260° |
| 2026-05-05 16:56 | 54.55651 | -5.96718 | 6577 ft | 207 kts | 260° |
| 2026-05-05 16:56 | 54.55380 | -5.99071 | 6281 ft | 196 kts | 261° |
| 2026-05-05 16:56 | 54.55117 | -6.01367 | 5838 ft | 194 kts | 261° |
| 2026-05-05 16:56 | 54.54853 | -6.03643 | 5400 ft | 193 kts | 261° |
| 2026-05-05 16:57 | 54.54589 | -6.05901 | 4973 ft | 191 kts | 261° |
| 2026-05-05 16:57 | 54.54328 | -6.08141 | 4500 ft | 191 kts | 260° |
| 2026-05-05 16:57 | 54.54064 | -6.10421 | 3909 ft | 197 kts | 261° |
| 2026-05-05 16:57 | 54.53796 | -6.12720 | 3348 ft | 199 kts | 261° |
| 2026-05-05 16:58 | 54.53788 | -6.15062 | 2809 ft | 196 kts | 289° |
| 2026-05-05 16:58 | 54.54604 | -6.16797 | 2514 ft | 182 kts | 328° |
| 2026-05-05 16:58 | 54.55730 | -6.17410 | 2482 ft | 159 kts | 345° |
| 2026-05-05 16:58 | 54.56751 | -6.17886 | 2258 ft | 143 kts | 342° |
| 2026-05-05 16:59 | 54.57661 | -6.18368 | 1946 ft | 135 kts | 340° |
| 2026-05-05 16:59 | 54.58533 | -6.18860 | 1661 ft | 128 kts | 340° |
| 2026-05-05 16:59 | 54.59366 | -6.19307 | 1377 ft | 124 kts | 341° |
| 2026-05-05 16:59 | 54.60177 | -6.19756 | 1145 ft | 121 kts | 341° |
| 2026-05-05 17:00 | 54.60972 | -6.20235 | 970 ft | 121 kts | 340° |
| 2026-05-05 17:00 | 54.61780 | -6.20645 | 779 ft | 121 kts | 345° |
| 2026-05-05 17:00 | 54.62575 | -6.21085 | 618 ft | 120 kts | 342° |
| 2026-05-05 17:00 | 54.63369 | -6.21517 | 486 ft | 119 kts | 342° |
| 2026-05-05 17:01 | 54.64157 | -6.21955 | 350 ft | 119 kts | 342° |
| 2026-05-05 17:01 | 54.64900 | -6.22374 | 274 ft | 94 kts | 343° |
| 2026-05-05 17:01 | 54.65384 | -6.22636 | 272 ft | 67 kts | 342° |
| 2026-05-05 17:01 | 54.65682 | -6.22801 | 272 ft | 25 kts | 345° |
| 2026-05-05 17:02 | 54.65746 | -6.22618 | 272 ft | 19 kts | 85° |
| 2026-05-05 17:02 | 54.65763 | -6.22375 | 272 ft | 22 kts | 84° |
| 2026-05-05 17:02 | 54.65794 | -6.22101 | 272 ft | 25 kts | 68° |
| 2026-05-05 17:02 | 54.65872 | -6.21824 | 276 ft | 26 kts | 64° |
| 2026-05-05 17:03 | 54.65947 | -6.21587 | 272 ft | 18 kts | 37° |
| 2026-05-05 17:03 | 54.66061 | -6.21635 | 275 ft | 15 kts | 336° |
| 2026-05-05 17:03 | 54.66087 | -6.21654 | 272 ft | 0 kts | 336° |